createdAt,value
2022-12-08T00:00:09.116Z,86.60
2022-12-08T00:02:38.142Z,87.70
2022-12-08T00:05:25.493Z,87.60
2022-12-08T00:08:12.776Z,86.40
2022-12-08T00:10:49.996Z,85.70
2022-12-08T00:13:19.135Z,86.00
2022-12-08T00:15:48.022Z,86.30
2022-12-08T00:18:16.920Z,85.70
2022-12-08T00:20:45.831Z,85.50
2022-12-08T00:23:14.751Z,84.70
2022-12-08T00:25:43.914Z,87.20
2022-12-08T00:28:12.822Z,84.70
2022-12-08T00:30:42.758Z,84.20
2022-12-08T00:33:12.174Z,83.50
2022-12-08T00:35:43.240Z,83.60
2022-12-08T00:38:12.355Z,83.10
2022-12-08T00:40:46.627Z,83.80
2022-12-08T00:43:19.420Z,84.50
2022-12-08T00:45:48.395Z,83.20
2022-12-08T00:48:17.499Z,82.60
2022-12-08T00:50:58.428Z,82.60
2022-12-08T00:53:27.516Z,82.40
2022-12-08T00:55:56.451Z,83.60
2022-12-08T00:58:29.438Z,82.20
2022-12-08T01:00:59.471Z,82.00
2022-12-08T01:03:28.558Z,82.00
2022-12-08T01:05:57.445Z,82.10
2022-12-08T01:08:26.363Z,81.80
2022-12-08T01:10:55.406Z,81.20
2022-12-08T01:13:24.437Z,80.80
2022-12-08T01:15:53.281Z,80.80
2022-12-08T01:18:22.342Z,81.50
2022-12-08T01:20:51.226Z,80.40
2022-12-08T01:23:20.272Z,80.60
2022-12-08T01:25:49.203Z,79.70
2022-12-08T01:28:18.142Z,80.10
2022-12-08T01:30:47.332Z,79.40
2022-12-08T01:33:16.693Z,78.60
2022-12-08T01:35:45.599Z,78.60
2022-12-08T01:38:14.450Z,79.90
2022-12-08T01:40:43.473Z,78.30
2022-12-08T01:43:20.518Z,78.00
2022-12-08T01:45:50.199Z,77.30
2022-12-08T01:48:28.702Z,75.90
2022-12-08T01:50:58.424Z,75.80
2022-12-08T01:53:36.500Z,76.10
2022-12-08T01:56:10.022Z,75.80
2022-12-08T01:58:46.389Z,76.20
2022-12-08T02:01:15.717Z,74.80
2022-12-08T02:04:04.179Z,74.70
2022-12-08T02:06:37.783Z,75.00
2022-12-08T02:09:08.319Z,74.90
2022-12-08T02:11:37.858Z,74.20
2022-12-08T02:14:09.888Z,74.10
2022-12-08T02:17:03.527Z,72.60
2022-12-08T02:19:53.606Z,73.20
2022-12-08T02:22:42.214Z,72.30
2022-12-08T02:25:14.152Z,73.30
2022-12-08T02:28:08.035Z,73.00
2022-12-08T02:30:48.860Z,72.50
2022-12-08T02:34:06.092Z,72.50
2022-12-08T02:36:44.098Z,71.30
2022-12-08T02:39:27.214Z,72.00
2022-12-08T02:42:21.790Z,72.90
2022-12-08T02:45:00.579Z,70.60
2022-12-08T02:47:31.283Z,70.00
2022-12-08T02:50:01.733Z,70.70
2022-12-08T02:52:30.809Z,71.90
2022-12-08T02:55:07.911Z,71.40
2022-12-08T02:58:27.509Z,72.10
2022-12-08T03:01:12.285Z,70.90
2022-12-08T03:03:53.408Z,70.40
2022-12-08T03:06:51.285Z,68.70
2022-12-08T03:09:36.604Z,71.10
2022-12-08T03:12:27.697Z,70.70
2022-12-08T03:15:01.569Z,71.40
2022-12-08T03:17:31.166Z,71.00
2022-12-08T03:20:07.492Z,70.10
2022-12-08T03:22:36.490Z,69.50
2022-12-08T03:25:05.772Z,70.10
2022-12-08T03:27:34.915Z,66.20
2022-12-08T03:30:04.610Z,67.40
2022-12-08T03:32:56.714Z,68.60
2022-12-08T03:35:32.119Z,66.50
2022-12-08T03:38:11.947Z,68.50
2022-12-08T03:40:41.975Z,68.30
2022-12-08T03:43:11.154Z,69.20
2022-12-08T03:45:40.287Z,68.00
2022-12-08T03:48:12.395Z,67.70
2022-12-08T03:50:41.265Z,66.70
2022-12-08T03:53:10.287Z,67.40
2022-12-08T03:55:39.168Z,67.40
2022-12-08T03:58:08.039Z,67.80
2022-12-08T04:00:36.894Z,67.30
2022-12-08T04:03:07.464Z,68.20
2022-12-08T04:05:37.047Z,67.70
2022-12-08T04:08:06.487Z,64.60
2022-12-08T04:10:35.414Z,66.60
2022-12-08T04:13:04.402Z,65.80
2022-12-08T04:15:33.309Z,62.80
2022-12-08T04:18:02.333Z,67.00
2022-12-08T04:20:31.181Z,67.00
2022-12-08T04:23:00.014Z,67.40
2022-12-08T04:25:29.152Z,67.10
2022-12-08T04:27:57.971Z,64.50
2022-12-08T04:30:26.897Z,67.30
2022-12-08T04:32:55.867Z,67.30
2022-12-08T04:35:25.002Z,66.80
2022-12-08T04:37:54.021Z,64.30
2022-12-08T04:40:23.014Z,67.20
2022-12-08T04:42:52.021Z,66.90
2022-12-08T04:45:21.244Z,63.20
2022-12-08T04:47:50.076Z,67.20
2022-12-08T04:50:19.086Z,67.90
2022-12-08T04:52:48.042Z,68.10
2022-12-08T04:55:17.195Z,64.60
2022-12-08T04:57:46.263Z,63.00
2022-12-08T05:00:19.104Z,62.40
2022-12-08T05:02:50.537Z,69.90
2022-12-08T05:05:19.523Z,67.30
2022-12-08T05:07:48.487Z,67.90
2022-12-08T05:10:17.543Z,67.10
2022-12-08T05:12:46.875Z,67.10
2022-12-08T05:15:16.024Z,65.80
2022-12-08T05:17:44.992Z,66.60
2022-12-08T05:20:14.945Z,67.50
2022-12-08T05:22:44.202Z,67.90
2022-12-08T05:25:16.082Z,64.80
2022-12-08T05:27:45.107Z,65.60
2022-12-08T05:30:14.401Z,64.40
2022-12-08T05:32:43.392Z,63.80
2022-12-08T05:35:13.094Z,62.00
2022-12-08T05:37:42.146Z,62.80
2022-12-08T05:40:11.384Z,64.80
2022-12-08T05:42:40.454Z,64.50
2022-12-08T05:45:10.496Z,64.90
2022-12-08T05:47:39.384Z,63.80
2022-12-08T05:50:09.238Z,60.90
2022-12-08T05:52:38.395Z,63.60
2022-12-08T05:55:08.074Z,62.10
2022-12-08T05:57:37.231Z,63.10
2022-12-08T06:00:07.538Z,63.80
2022-12-08T06:02:36.934Z,58.10
2022-12-08T06:05:06.072Z,60.10
2022-12-08T06:07:34.925Z,61.70
2022-12-08T06:10:04.383Z,63.00
2022-12-08T06:12:38.209Z,63.40
2022-12-08T06:15:07.462Z,63.20
2022-12-08T06:17:36.425Z,63.60
2022-12-08T06:20:10.260Z,63.50
2022-12-08T06:22:38.906Z,64.50
2022-12-08T06:25:10.053Z,59.20
2022-12-08T06:27:39.530Z,58.90
2022-12-08T06:30:09.374Z,61.10
2022-12-08T06:32:38.617Z,61.60
2022-12-08T06:35:08.036Z,62.00
2022-12-08T06:37:37.167Z,62.30
2022-12-08T06:40:06.669Z,61.10
2022-12-08T06:42:45.277Z,62.20
2022-12-08T06:45:16.830Z,62.10
2022-12-08T06:47:46.155Z,59.80
2022-12-08T06:50:16.087Z,60.00
2022-12-08T06:52:58.236Z,61.40
2022-12-08T06:55:57.836Z,61.20
2022-12-08T06:58:27.684Z,61.50
2022-12-08T07:00:56.706Z,59.10
2022-12-08T07:03:25.588Z,59.60
2022-12-08T07:06:03.554Z,58.50
2022-12-08T07:08:34.096Z,60.60
2022-12-08T07:11:09.747Z,60.40
2022-12-08T07:13:39.077Z,59.80
2022-12-08T07:16:09.604Z,60.00
2022-12-08T07:18:39.432Z,58.40
2022-12-08T07:21:13.409Z,59.00
2022-12-08T07:23:42.437Z,59.40
2022-12-08T07:26:13.395Z,58.70
2022-12-08T07:28:44.353Z,58.60
2022-12-08T07:31:21.807Z,58.70
2022-12-08T07:33:51.446Z,57.60
2022-12-08T07:36:20.628Z,56.40
2022-12-08T07:38:50.466Z,57.40
2022-12-08T07:41:24.312Z,55.40
2022-12-08T07:43:57.230Z,56.40
2022-12-08T07:46:27.743Z,58.30
2022-12-08T07:48:58.199Z,58.90
2022-12-08T07:51:27.282Z,59.20
2022-12-08T07:53:56.434Z,59.20
2022-12-08T07:56:25.885Z,58.30
2022-12-08T07:58:54.780Z,59.80
2022-12-08T08:01:29.575Z,59.70
2022-12-08T08:04:02.533Z,59.80
2022-12-08T08:06:32.754Z,59.60
2022-12-08T08:09:02.264Z,59.50
2022-12-08T08:11:31.409Z,59.40
2022-12-08T08:14:00.465Z,59.50
2022-12-08T08:16:32.232Z,59.70
2022-12-08T08:19:05.511Z,59.60
2022-12-08T08:21:45.619Z,59.70
2022-12-08T08:24:15.052Z,59.20
2022-12-08T08:26:44.111Z,58.60
2022-12-08T08:29:12.990Z,57.90
2022-12-08T08:31:42.163Z,58.40
2022-12-08T08:34:11.086Z,58.30
2022-12-08T08:36:40.837Z,58.70
2022-12-08T08:39:10.056Z,59.20
2022-12-08T08:41:38.959Z,59.60
2022-12-08T08:44:08.048Z,58.20
2022-12-08T08:46:37.306Z,59.10
2022-12-08T08:49:06.199Z,59.40
2022-12-08T08:51:35.704Z,59.50
2022-12-08T08:54:04.748Z,58.30
2022-12-08T08:56:33.639Z,59.30
2022-12-08T08:59:04.127Z,59.00
2022-12-08T09:01:33.193Z,59.40
2022-12-08T09:04:02.628Z,59.30
2022-12-08T09:06:31.825Z,59.70
2022-12-08T09:09:00.818Z,60.00
2022-12-08T09:11:29.900Z,59.60
2022-12-08T09:13:58.773Z,59.10
2022-12-08T09:16:28.059Z,58.30
2022-12-08T09:18:56.972Z,58.80
2022-12-08T09:21:27.901Z,59.10
2022-12-08T09:23:59.555Z,60.00
2022-12-08T09:26:29.733Z,60.00
2022-12-08T09:28:59.484Z,60.20
2022-12-08T09:31:28.902Z,60.20
2022-12-08T09:33:57.842Z,60.30
2022-12-08T09:36:26.919Z,59.60
2022-12-08T09:38:55.878Z,59.90
2022-12-08T09:41:38.793Z,60.00
2022-12-08T09:44:46.132Z,60.60
2022-12-08T09:47:33.924Z,60.00
2022-12-08T09:50:22.921Z,60.40
2022-12-08T09:53:02.652Z,60.10
2022-12-08T09:55:43.814Z,60.70
2022-12-08T09:58:50.206Z,61.00
2022-12-08T10:01:20.905Z,60.90
2022-12-08T10:03:50.611Z,60.60
2022-12-08T10:06:37.676Z,60.90
2022-12-08T10:09:40.271Z,60.80
2022-12-08T10:12:37.097Z,60.30
2022-12-08T10:15:21.349Z,61.20
2022-12-08T10:17:53.152Z,61.50
2022-12-08T10:20:27.973Z,61.60
2022-12-08T10:23:16.876Z,61.80
2022-12-08T10:25:57.362Z,61.50
2022-12-08T10:28:26.184Z,62.00
2022-12-08T10:30:55.168Z,62.20
2022-12-08T10:33:25.026Z,62.20
2022-12-08T10:36:05.767Z,62.20
2022-12-08T10:38:37.280Z,62.40
2022-12-08T10:41:06.186Z,62.40
2022-12-08T10:43:35.749Z,62.60
2022-12-08T10:46:22.393Z,62.70
2022-12-08T10:48:58.363Z,62.80
2022-12-08T10:51:47.268Z,63.00
2022-12-08T10:54:35.782Z,62.90
2022-12-08T10:57:04.880Z,63.00
2022-12-08T10:59:35.426Z,63.20
2022-12-08T11:02:04.441Z,63.20
2022-12-08T11:04:39.940Z,63.30
2022-12-08T11:07:14.359Z,63.50
2022-12-08T11:09:50.181Z,63.50
2022-12-08T11:12:23.724Z,63.60
2022-12-08T11:15:06.379Z,63.60
2022-12-08T11:17:42.390Z,63.70
2022-12-08T11:20:11.237Z,63.70
2022-12-08T11:22:42.773Z,63.90
2022-12-08T11:25:14.546Z,64.00
2022-12-08T11:27:48.924Z,64.10
2022-12-08T11:30:27.208Z,64.20
2022-12-08T11:33:23.704Z,64.20
2022-12-08T11:36:10.130Z,64.40
2022-12-08T11:38:45.527Z,64.50
2022-12-08T11:41:19.049Z,64.60
2022-12-08T11:44:18.236Z,64.70
2022-12-08T11:47:00.934Z,64.70
2022-12-08T11:49:39.393Z,64.70
2022-12-08T11:52:16.691Z,64.80
2022-12-08T11:54:53.304Z,64.70
2022-12-08T11:57:24.939Z,64.80
2022-12-08T11:59:56.012Z,64.80
2022-12-08T12:02:35.504Z,64.90
2022-12-08T12:05:39.856Z,64.90
2022-12-08T12:08:40.615Z,64.90
2022-12-08T12:11:12.679Z,65.00
2022-12-08T12:13:57.885Z,65.00
2022-12-08T12:16:45.091Z,65.10
2022-12-08T12:19:20.029Z,65.00
2022-12-08T12:21:56.712Z,65.00
2022-12-08T12:24:46.913Z,65.10
2022-12-08T12:27:15.805Z,65.30
2022-12-08T12:29:55.739Z,65.30
2022-12-08T12:32:27.171Z,65.30
2022-12-08T12:35:00.180Z,65.30
2022-12-08T12:37:44.191Z,65.40
2022-12-08T12:40:18.812Z,65.70
2022-12-08T12:42:57.072Z,65.70
2022-12-08T12:45:31.329Z,65.70
2022-12-08T12:48:00.952Z,65.70
2022-12-08T12:50:35.522Z,66.60
2022-12-08T12:53:22.654Z,66.00
2022-12-08T12:55:57.962Z,66.00
2022-12-08T12:58:29.622Z,66.10
2022-12-08T13:01:14.041Z,66.20
2022-12-08T13:04:04.324Z,66.30
2022-12-08T13:06:59.871Z,66.40
2022-12-08T13:09:40.913Z,66.70
2022-12-08T13:12:13.795Z,66.60
2022-12-08T13:14:52.767Z,66.50
2022-12-08T13:17:34.342Z,66.70
2022-12-08T13:20:07.463Z,66.80
2022-12-08T13:22:54.978Z,66.80
2022-12-08T13:25:42.247Z,67.10
2022-12-08T13:28:32.398Z,67.20
2022-12-08T13:31:03.073Z,67.40
2022-12-08T13:33:34.322Z,67.30
2022-12-08T13:36:07.267Z,67.20
2022-12-08T13:38:39.726Z,67.40
2022-12-08T13:41:31.748Z,67.50
2022-12-08T13:45:18.644Z,67.50
2022-12-08T13:47:33.556Z,68.00
2022-12-08T13:57:04.023Z,68.10
2022-12-08T13:59:35.426Z,68.10
2022-12-08T14:02:17.229Z,68.30
2022-12-08T14:07:42.010Z,68.40
2022-12-08T14:10:17.796Z,68.60
2022-12-08T14:12:49.577Z,68.50
2022-12-08T14:15:24.467Z,68.80
2022-12-08T14:17:58.440Z,68.80
2022-12-08T14:20:31.801Z,68.80
2022-12-08T14:23:01.265Z,70.00
2022-12-08T14:25:31.273Z,69.10
2022-12-08T14:28:03.478Z,69.10
2022-12-08T14:30:37.331Z,69.20
2022-12-08T14:33:06.263Z,69.40
2022-12-08T14:35:40.216Z,71.00
2022-12-08T14:38:15.962Z,69.80
2022-12-08T14:41:06.866Z,71.20
2022-12-08T14:43:36.183Z,70.00
2022-12-08T14:46:19.903Z,70.10
2022-12-08T14:48:48.961Z,69.90
2022-12-08T14:51:41.872Z,70.00
2022-12-08T14:54:16.795Z,70.50
2022-12-08T14:56:54.381Z,70.50
2022-12-08T14:59:31.365Z,70.90
2022-12-08T15:02:24.241Z,70.40
2022-12-08T15:05:18.051Z,71.10
2022-12-08T15:07:54.455Z,71.00
2022-12-08T15:10:25.338Z,71.20
2022-12-08T15:13:03.470Z,71.20
2022-12-08T15:15:46.737Z,71.00
2022-12-08T15:18:43.427Z,71.00
2022-12-08T15:21:16.068Z,71.00
2022-12-08T15:23:53.140Z,71.40
2022-12-08T15:26:28.085Z,71.20
2022-12-08T15:28:57.273Z,71.50
2022-12-08T15:31:26.189Z,71.60
2022-12-08T15:33:55.154Z,71.40
2022-12-08T15:36:24.016Z,71.70
2022-12-08T15:38:52.848Z,71.90
2022-12-08T15:41:21.679Z,72.80
2022-12-08T15:43:50.774Z,72.00
2022-12-08T15:46:19.685Z,72.30
2022-12-08T15:48:49.737Z,72.10
2022-12-08T15:51:20.272Z,72.30
2022-12-08T15:53:49.105Z,72.20
2022-12-08T15:56:34.458Z,72.00
2022-12-08T15:59:06.277Z,72.40
2022-12-08T16:01:35.576Z,72.50
2022-12-08T16:07:20.447Z,72.50
2022-12-08T16:09:46.405Z,73.70
2022-12-08T16:15:53.431Z,72.90
2022-12-08T16:18:31.510Z,73.00
2022-12-08T16:21:16.933Z,73.20
2022-12-08T16:23:49.432Z,72.80
2022-12-08T16:29:21.389Z,73.30
2022-12-08T16:31:50.945Z,73.20
2022-12-08T16:34:19.864Z,73.60
2022-12-08T16:36:48.864Z,73.70
2022-12-08T16:39:17.777Z,73.70
2022-12-08T16:42:04.875Z,73.60
2022-12-08T16:44:33.740Z,73.50
2022-12-08T16:47:11.297Z,74.30
2022-12-08T16:49:40.547Z,74.30
2022-12-08T16:52:09.544Z,74.20
2022-12-08T16:54:38.610Z,74.10
2022-12-08T16:57:07.498Z,74.60
2022-12-08T16:59:36.434Z,74.60
2022-12-08T17:02:05.329Z,74.10
2022-12-08T17:04:34.534Z,74.30
2022-12-08T17:07:03.496Z,74.40
2022-12-08T17:09:33.704Z,74.70
2022-12-08T17:12:04.297Z,74.60
2022-12-08T17:14:36.592Z,75.10
2022-12-08T17:17:06.474Z,74.70
2022-12-08T17:19:35.924Z,74.60
2022-12-08T17:22:05.576Z,75.40
2022-12-08T17:24:34.542Z,75.90
2022-12-08T17:27:05.186Z,75.40
2022-12-08T17:29:35.001Z,75.70
2022-12-08T17:32:03.986Z,75.40
2022-12-08T17:34:33.258Z,75.40
2022-12-08T17:37:02.128Z,75.60
2022-12-08T17:39:31.325Z,75.80
2022-12-08T17:42:00.238Z,75.80
2022-12-08T17:44:29.348Z,76.20
2022-12-08T17:46:58.233Z,76.40
2022-12-08T17:49:30.660Z,76.90
2022-12-08T17:52:02.526Z,76.30
2022-12-08T17:54:32.463Z,75.90
2022-12-08T17:57:01.531Z,76.30
2022-12-08T17:59:30.713Z,76.60
2022-12-08T18:02:01.467Z,76.10
2022-12-08T18:04:30.937Z,76.40
2022-12-08T18:07:02.319Z,76.50
2022-12-08T18:09:33.266Z,76.50
2022-12-08T18:12:02.384Z,76.70
2022-12-08T18:14:31.222Z,77.00
2022-12-08T18:17:00.137Z,77.60
2022-12-08T18:19:29.121Z,77.60
2022-12-08T18:21:58.164Z,77.30
2022-12-08T18:24:27.102Z,77.60
2022-12-08T18:26:57.355Z,77.70
2022-12-08T18:29:27.059Z,77.00
2022-12-08T18:31:56.050Z,77.80
2022-12-08T18:34:24.916Z,77.40
2022-12-08T18:36:53.948Z,78.50
2022-12-08T18:39:29.297Z,78.00
2022-12-08T18:41:59.617Z,77.50
2022-12-08T18:44:28.579Z,77.50
2022-12-08T18:46:57.438Z,77.30
2022-12-08T18:49:27.534Z,77.60
2022-12-08T18:51:56.470Z,77.70
2022-12-08T18:54:37.140Z,78.20
2022-12-08T18:57:14.246Z,78.00
2022-12-08T18:59:43.142Z,78.30
2022-12-08T19:02:15.402Z,78.40
2022-12-08T19:04:44.999Z,78.50
2022-12-08T19:07:15.839Z,78.50
2022-12-08T19:09:45.313Z,78.50
2022-12-08T19:12:14.263Z,78.40
2022-12-08T19:14:43.445Z,78.40
2022-12-08T19:17:12.298Z,78.90
2022-12-08T19:19:41.211Z,79.10
2022-12-08T19:22:10.067Z,78.50
2022-12-08T19:24:39.042Z,78.80
2022-12-08T19:27:08.328Z,78.90
2022-12-08T19:29:37.226Z,79.00
2022-12-08T19:32:06.447Z,78.80
2022-12-08T19:34:35.590Z,78.90
2022-12-08T19:37:04.753Z,78.70
2022-12-08T19:39:52.153Z,79.10
2022-12-08T19:42:40.128Z,79.20
2022-12-08T19:45:22.346Z,78.80
2022-12-08T19:47:51.571Z,79.00
2022-12-08T19:50:39.529Z,79.30
2022-12-08T19:53:14.060Z,79.10
2022-12-08T19:55:44.390Z,79.10
2022-12-08T19:58:13.456Z,79.30
2022-12-08T20:00:43.851Z,79.20
2022-12-08T20:03:17.412Z,79.50
2022-12-08T20:05:48.223Z,79.40
2022-12-08T20:08:17.937Z,79.80
2022-12-08T20:10:47.810Z,79.70
2022-12-08T20:13:39.695Z,79.60
2022-12-08T20:16:09.701Z,79.80
2022-12-08T20:18:42.972Z,80.00
2022-12-08T20:21:12.722Z,80.10
2022-12-08T20:23:41.584Z,80.10
2022-12-08T20:26:13.388Z,79.80
2022-12-08T20:28:42.324Z,79.80
2022-12-08T20:31:20.041Z,79.90
2022-12-08T20:33:49.282Z,80.00
2022-12-08T20:36:20.063Z,80.20
2022-12-08T20:38:50.492Z,79.80
2022-12-08T20:41:20.173Z,79.90
2022-12-08T20:43:49.932Z,80.30
2022-12-08T20:46:20.397Z,80.30
2022-12-08T20:48:49.863Z,80.00
2022-12-08T20:51:20.926Z,80.30
2022-12-08T20:53:50.013Z,80.40
2022-12-08T20:56:22.399Z,80.20
2022-12-08T20:58:52.621Z,79.90
2022-12-08T21:01:24.278Z,80.10
2022-12-08T21:03:53.934Z,80.30
2022-12-08T21:06:30.790Z,80.50
2022-12-08T21:09:00.021Z,80.30
2022-12-08T21:11:28.997Z,80.80
2022-12-08T21:13:57.943Z,80.40
2022-12-08T21:16:27.011Z,80.50
2022-12-08T21:18:56.010Z,80.40
2022-12-08T21:21:25.184Z,80.80
2022-12-08T21:23:54.497Z,80.80
2022-12-08T21:26:26.963Z,80.60
2022-12-08T21:28:56.180Z,80.70
2022-12-08T21:31:27.378Z,80.80
2022-12-08T21:33:56.668Z,80.70
2022-12-08T21:36:25.970Z,80.70
2022-12-08T21:38:56.245Z,80.80
2022-12-08T21:41:44.122Z,81.00
2022-12-08T21:44:14.393Z,80.70
2022-12-08T21:46:43.887Z,80.90
2022-12-08T21:49:13.294Z,80.90
2022-12-08T21:51:43.200Z,81.10
2022-12-08T21:54:19.009Z,81.10
2022-12-08T21:56:50.101Z,81.00
2022-12-08T21:59:20.844Z,81.10
2022-12-08T22:01:50.013Z,81.00
2022-12-08T22:04:22.664Z,81.20
2022-12-08T22:06:52.013Z,81.10
2022-12-08T22:09:21.134Z,81.30
2022-12-08T22:11:50.504Z,81.30
2022-12-08T22:14:19.719Z,81.50
2022-12-08T22:16:48.820Z,81.50
2022-12-08T22:19:18.113Z,81.60
2022-12-08T22:21:48.143Z,81.60
2022-12-08T22:24:17.175Z,81.70
2022-12-08T22:26:46.067Z,81.70
2022-12-08T22:29:15.612Z,81.90
2022-12-08T22:31:45.159Z,81.90
2022-12-08T22:34:15.550Z,81.90
2022-12-08T22:36:45.551Z,82.00
2022-12-08T22:39:14.779Z,82.10
2022-12-08T22:41:43.795Z,82.10
2022-12-08T22:44:15.695Z,82.10
2022-12-08T22:46:44.823Z,82.10
2022-12-08T22:49:13.990Z,82.40
2022-12-08T22:51:42.896Z,82.40
2022-12-08T22:54:12.982Z,82.40
2022-12-08T22:56:41.962Z,82.60
2022-12-08T22:59:10.801Z,82.70
2022-12-08T23:01:40.070Z,82.90
2022-12-08T23:04:15.777Z,83.20
2022-12-08T23:06:46.506Z,83.10
2022-12-08T23:09:15.482Z,83.20
2022-12-08T23:11:45.115Z,83.00
2022-12-08T23:14:14.275Z,82.90
2022-12-08T23:16:43.170Z,84.30
2022-12-08T23:19:12.281Z,84.10
2022-12-08T23:21:41.288Z,86.60
2022-12-08T23:24:10.308Z,86.90
2022-12-08T23:26:39.501Z,85.90
2022-12-08T23:29:08.380Z,85.30
2022-12-08T23:31:38.525Z,84.50
2022-12-08T23:34:07.522Z,84.40
2022-12-08T23:36:36.857Z,84.30
2022-12-08T23:39:06.854Z,84.10
2022-12-08T23:41:35.748Z,84.30
2022-12-08T23:44:04.675Z,84.30
2022-12-08T23:46:33.689Z,84.30
2022-12-08T23:49:03.015Z,84.50
2022-12-08T23:51:32.059Z,84.80
2022-12-08T23:54:01.193Z,85.00
2022-12-08T23:56:30.590Z,85.10
2022-12-08T23:59:01.411Z,85.90
